Terminal Aerodrome Forecast
Issued by NWS

Home | Current Version | Previous Version | Text Only | Print | Product List | Glossary On
Versions: 1 2 3 4 5 6 7 8 9 10 11 12 13 14 15 16
965
FTUS46 KSEW 140520
TAFBLI
TAF
KBLI 140520Z 1406/1506 00000KT P6SM BKN250
     FM140900 04004KT P6SM SCT250
     FM141100 03004KT 2SM BR VCFG SCT002
     FM141800 01003KT P6SM SCT250=

USA.gov is the U.S. government's official web portal to all federal, state and local government web resources and services.